Terminal Aerodrome Forecast
Issued by NWS

Home | Current Version | Previous Version | Graphics & Text | Print | Product List | Glossary On
Versions: 1 2 3 4 5 6 7 8 9 10 11 12 13
405
FTUS45 KGGW 100536
TAFSDY
TAF
KSDY 100536Z 1006/1106 24006KT P6SM SCT150 BKN250
     FM101800 33013KT P6SM SCT030 BKN060
     FM102200 34012KT P6SM BKN025
     FM110000 36008KT P6SM BKN030
     FM110300 01007KT P6SM BKN020
      AMD LTD TO CLD VIS AND WIND=

USA.gov is the U.S. government's official web portal to all federal, state and local government web resources and services.